sensor_id;sensor_type;location;lat;lon;timestamp;pressure;altitude;pressure_sealevel;temperature;humidity
84232;BME280;74368;48.022;13.830;2024-02-16T00:00:43;96750.00;;;3.71;91.93
84232;BME280;74368;48.022;13.830;2024-02-16T00:03:09;96747.69;;;3.68;91.73
84232;BME280;74368;48.022;13.830;2024-02-16T00:05:35;96754.06;;;3.67;92.10
84232;BME280;74368;48.022;13.830;2024-02-16T00:08:01;96752.88;;;3.70;92.49
84232;BME280;74368;48.022;13.830;2024-02-16T00:10:28;96755.69;;;3.68;92.47
84232;BME280;74368;48.022;13.830;2024-02-16T00:12:53;96743.03;;;3.56;91.06
84232;BME280;74368;48.022;13.830;2024-02-16T00:15:18;96751.44;;;3.53;92.08
84232;BME280;74368;48.022;13.830;2024-02-16T00:17:44;96753.25;;;3.52;92.17
84232;BME280;74368;48.022;13.830;2024-02-16T00:20:09;96746.63;;;3.48;91.43
84232;BME280;74368;48.022;13.830;2024-02-16T00:22:37;96747.13;;;3.37;90.89
84232;BME280;74368;48.022;13.830;2024-02-16T00:25:03;96740.50;;;3.33;91.05
84232;BME280;74368;48.022;13.830;2024-02-16T00:27:28;96741.25;;;3.27;90.72
84232;BME280;74368;48.022;13.830;2024-02-16T00:29:54;96738.31;;;3.22;91.00
84232;BME280;74368;48.022;13.830;2024-02-16T00:32:19;96752.28;;;3.24;91.64
84232;BME280;74368;48.022;13.830;2024-02-16T00:34:44;96740.53;;;3.18;91.28
84232;BME280;74368;48.022;13.830;2024-02-16T00:37:10;96739.84;;;3.31;93.01
84232;BME280;74368;48.022;13.830;2024-02-16T00:39:39;96741.41;;;3.40;92.94
84232;BME280;74368;48.022;13.830;2024-02-16T00:42:08;96745.09;;;3.39;93.12
84232;BME280;74368;48.022;13.830;2024-02-16T00:44:33;96735.88;;;3.42;92.90
84232;BME280;74368;48.022;13.830;2024-02-16T00:46:59;96733.03;;;3.43;93.28
84232;BME280;74368;48.022;13.830;2024-02-16T00:49:25;96726.66;;;3.44;92.88
84232;BME280;74368;48.022;13.830;2024-02-16T00:51:50;96732.47;;;3.48;92.96
84232;BME280;74368;48.022;13.830;2024-02-16T00:54:18;96733.66;;;3.45;92.34
84232;BME280;74368;48.022;13.830;2024-02-16T00:56:43;96724.75;;;3.38;92.51
84232;BME280;74368;48.022;13.830;2024-02-16T00:59:09;96721.69;;;3.41;92.78
84232;BME280;74368;48.022;13.830;2024-02-16T01:01:35;96733.00;;;3.58;93.81
84232;BME280;74368;48.022;13.830;2024-02-16T01:04:01;96729.56;;;3.64;93.75
84232;BME280;74368;48.022;13.830;2024-02-16T01:06:27;96729.81;;;3.69;93.97
84232;BME280;74368;48.022;13.830;2024-02-16T01:08:52;96726.88;;;3.64;93.72
84232;BME280;74368;48.022;13.830;2024-02-16T01:11:18;96731.88;;;3.67;93.91
84232;BME280;74368;48.022;13.830;2024-02-16T01:13:45;96716.47;;;3.69;93.79
84232;BME280;74368;48.022;13.830;2024-02-16T01:16:11;96716.47;;;3.69;93.91
84232;BME280;74368;48.022;13.830;2024-02-16T01:18:36;96708.91;;;3.72;93.94
84232;BME280;74368;48.022;13.830;2024-02-16T01:21:02;96709.16;;;3.77;93.66
84232;BME280;74368;48.022;13.830;2024-02-16T01:23:29;96709.34;;;3.76;93.63
84232;BME280;74368;48.022;13.830;2024-02-16T01:25:54;96717.56;;;3.74;93.26
84232;BME280;74368;48.022;13.830;2024-02-16T01:28:19;96716.53;;;3.75;93.18
84232;BME280;74368;48.022;13.830;2024-02-16T01:30:44;96720.81;;;3.70;92.47
84232;BME280;74368;48.022;13.830;2024-02-16T01:33:10;96716.25;;;3.70;92.93
84232;BME280;74368;48.022;13.830;2024-02-16T01:35:36;96715.31;;;3.78;93.05
84232;BME280;74368;48.022;13.830;2024-02-16T01:38:01;96716.78;;;3.80;93.05
84232;BME280;74368;48.022;13.830;2024-02-16T01:40:28;96712.47;;;3.79;92.22
84232;BME280;74368;48.022;13.830;2024-02-16T01:42:53;96709.59;;;3.81;92.62
84232;BME280;74368;48.022;13.830;2024-02-16T01:45:19;96712.47;;;3.79;92.61
84232;BME280;74368;48.022;13.830;2024-02-16T01:47:47;96708.72;;;3.74;92.23
84232;BME280;74368;48.022;13.830;2024-02-16T01:50:15;96704.78;;;3.70;91.68
84232;BME280;74368;48.022;13.830;2024-02-16T01:52:43;96705.41;;;3.72;92.16
84232;BME280;74368;48.022;13.830;2024-02-16T01:55:08;96701.91;;;3.71;92.18
84232;BME280;74368;48.022;13.830;2024-02-16T01:57:35;96703.38;;;3.74;92.52
84232;BME280;74368;48.022;13.830;2024-02-16T02:00:01;96700.06;;;3.72;93.01
84232;BME280;74368;48.022;13.830;2024-02-16T02:02:26;96695.94;;;3.69;92.76
84232;BME280;74368;48.022;13.830;2024-02-16T02:04:52;96696.31;;;3.66;93.06
84232;BME280;74368;48.022;13.830;2024-02-16T02:07:18;96695.03;;;3.62;93.41
84232;BME280;74368;48.022;13.830;2024-02-16T02:09:43;96693.16;;;3.63;93.73
84232;BME280;74368;48.022;13.830;2024-02-16T02:12:09;96678.56;;;3.59;93.43
84232;BME280;74368;48.022;13.830;2024-02-16T02:14:35;96677.47;;;3.53;93.60
84232;BME280;74368;48.022;13.830;2024-02-16T02:17:02;96689.69;;;3.62;93.67
84232;BME280;74368;48.022;13.830;2024-02-16T02:19:27;96677.72;;;3.58;93.97
84232;BME280;74368;48.022;13.830;2024-02-16T02:21:52;96677.59;;;3.45;93.99
84232;BME280;74368;48.022;13.830;2024-02-16T02:24:17;96676.50;;;3.40;94.18
84232;BME280;74368;48.022;13.830;2024-02-16T02:26:43;96682.31;;;3.43;94.30
84232;BME280;74368;48.022;13.830;2024-02-16T02:29:08;96683.41;;;3.34;94.13
84232;BME280;74368;48.022;13.830;2024-02-16T02:31:33;96690.59;;;3.33;94.00
84232;BME280;74368;48.022;13.830;2024-02-16T02:33:59;96682.16;;;3.30;94.53
84232;BME280;74368;48.022;13.830;2024-02-16T02:36:25;96680.13;;;3.32;93.76
84232;BME280;74368;48.022;13.830;2024-02-16T02:38:50;96674.50;;;3.27;93.39
84232;BME280;74368;48.022;13.830;2024-02-16T02:41:16;96682.50;;;3.27;93.55
84232;BME280;74368;48.022;13.830;2024-02-16T02:43:44;96680.13;;;3.32;93.71
84232;BME280;74368;48.022;13.830;2024-02-16T02:46:14;96682.72;;;3.25;94.14
84232;BME280;74368;48.022;13.830;2024-02-16T02:48:39;96682.34;;;3.28;94.16
84232;BME280;74368;48.022;13.830;2024-02-16T02:51:05;96679.28;;;3.31;94.12
84232;BME280;74368;48.022;13.830;2024-02-16T02:53:30;96680.94;;;3.32;94.30
84232;BME280;74368;48.022;13.830;2024-02-16T02:55:55;96686.28;;;3.32;94.66
84232;BME280;74368;48.022;13.830;2024-02-16T02:58:21;96668.59;;;3.31;95.54
84232;BME280;74368;48.022;13.830;2024-02-16T03:00:46;96676.44;;;3.33;94.74
84232;BME280;74368;48.022;13.830;2024-02-16T03:03:11;96671.09;;;3.33;94.86
84232;BME280;74368;48.022;13.830;2024-02-16T03:05:41;96685.50;;;3.39;94.51
84232;BME280;74368;48.022;13.830;2024-02-16T03:08:07;96669.50;;;3.39;95.12
84232;BME280;74368;48.022;13.830;2024-02-16T03:10:32;96676.97;;;3.43;95.22
84232;BME280;74368;48.022;13.830;2024-02-16T03:13:00;96681.91;;;3.46;95.54
84232;BME280;74368;48.022;13.830;2024-02-16T03:15:26;96683.19;;;3.50;94.80
84232;BME280;74368;48.022;13.830;2024-02-16T03:17:51;96674.16;;;3.51;94.96
84232;BME280;74368;48.022;13.830;2024-02-16T03:20:16;96680.69;;;3.49;94.55
84232;BME280;74368;48.022;13.830;2024-02-16T03:22:42;96671.47;;;3.51;94.57
84232;BME280;74368;48.022;13.830;2024-02-16T03:25:07;96674.00;;;3.53;94.55
84232;BME280;74368;48.022;13.830;2024-02-16T03:27:32;96678.34;;;3.60;94.96
84232;BME280;74368;48.022;13.830;2024-02-16T03:29:58;96676.09;;;3.57;94.40
84232;BME280;74368;48.022;13.830;2024-02-16T03:32:24;96676.47;;;3.54;94.05
84232;BME280;74368;48.022;13.830;2024-02-16T03:34:49;96670.59;;;3.44;94.25
84232;BME280;74368;48.022;13.830;2024-02-16T03:37:15;96679.88;;;3.48;94.38
84232;BME280;74368;48.022;13.830;2024-02-16T03:39:41;96675.31;;;3.42;94.82
84232;BME280;74368;48.022;13.830;2024-02-16T03:42:06;96681.63;;;3.41;94.82
84232;BME280;74368;48.022;13.830;2024-02-16T03:44:32;96677.34;;;3.40;94.69
84232;BME280;74368;48.022;13.830;2024-02-16T03:46:57;96672.72;;;3.34;94.53
84232;BME280;74368;48.022;13.830;2024-02-16T03:49:22;96683.63;;;3.32;94.23
84232;BME280;74368;48.022;13.830;2024-02-16T03:51:48;96687.69;;;3.28;94.25
84232;BME280;74368;48.022;13.830;2024-02-16T03:54:13;96680.63;;;3.21;94.77
84232;BME280;74368;48.022;13.830;2024-02-16T03:56:38;96685.84;;;3.14;94.44
84232;BME280;74368;48.022;13.830;2024-02-16T03:59:03;96682.09;;;3.09;94.69
84232;BME280;74368;48.022;13.830;2024-02-16T04:01:30;96682.75;;;3.11;94.19
84232;BME280;74368;48.022;13.830;2024-02-16T04:03:56;96685.41;;;3.11;94.39
84232;BME280;74368;48.022;13.830;2024-02-16T04:06:21;96683.09;;;3.08;94.50
84232;BME280;74368;48.022;13.830;2024-02-16T04:08:46;96678.13;;;3.05;94.88
84232;BME280;74368;48.022;13.830;2024-02-16T04:11:13;96674.00;;;3.02;94.92
84232;BME280;74368;48.022;13.830;2024-02-16T04:13:40;96675.59;;;2.97;94.44
84232;BME280;74368;48.022;13.830;2024-02-16T04:16:05;96682.94;;;2.95;94.80
84232;BME280;74368;48.022;13.830;2024-02-16T04:18:31;96682.56;;;2.98;94.79
84232;BME280;74368;48.022;13.830;2024-02-16T04:20:56;96691.41;;;2.98;95.07
84232;BME280;74368;48.022;13.830;2024-02-16T04:23:21;96683.97;;;2.94;94.91
84232;BME280;74368;48.022;13.830;2024-02-16T04:25:47;96684.41;;;2.97;94.51
84232;BME280;74368;48.022;13.830;2024-02-16T04:28:12;96681.94;;;2.96;94.97
84232;BME280;74368;48.022;13.830;2024-02-16T04:30:38;96696.94;;;2.97;95.12
84232;BME280;74368;48.022;13.830;2024-02-16T04:33:04;96680.94;;;2.97;95.12
84232;BME280;74368;48.022;13.830;2024-02-16T04:35:29;96681.09;;;2.95;95.00
84232;BME280;74368;48.022;13.830;2024-02-16T04:37:54;96680.09;;;2.96;95.15
84232;BME280;74368;48.022;13.830;2024-02-16T04:40:20;96680.47;;;2.93;94.77
84232;BME280;74368;48.022;13.830;2024-02-16T04:42:45;96675.13;;;2.93;94.64
84232;BME280;74368;48.022;13.830;2024-02-16T04:45:11;96689.47;;;2.92;94.61
84232;BME280;74368;48.022;13.830;2024-02-16T04:47:37;96686.63;;;2.94;94.96
84232;BME280;74368;48.022;13.830;2024-02-16T04:50:02;96685.78;;;2.93;95.01
84232;BME280;74368;48.022;13.830;2024-02-16T04:52:28;96683.75;;;2.95;94.98
84232;BME280;74368;48.022;13.830;2024-02-16T04:54:53;96687.06;;;2.97;95.11
84232;BME280;74368;48.022;13.830;2024-02-16T04:57:19;96694.06;;;2.98;94.98
84232;BME280;74368;48.022;13.830;2024-02-16T04:59:44;96691.59;;;2.97;94.93
84232;BME280;74368;48.022;13.830;2024-02-16T05:02:09;96699.22;;;3.00;95.02
84232;BME280;74368;48.022;13.830;2024-02-16T05:04:35;96686.28;;;2.97;94.86
84232;BME280;74368;48.022;13.830;2024-02-16T05:07:00;96690.78;;;2.96;94.80
84232;BME280;74368;48.022;13.830;2024-02-16T05:09:26;96678.00;;;2.92;94.88
84232;BME280;74368;48.022;13.830;2024-02-16T05:11:51;96686.63;;;2.94;94.74
84232;BME280;74368;48.022;13.830;2024-02-16T05:14:17;96688.28;;;2.95;94.88
84232;BME280;74368;48.022;13.830;2024-02-16T05:16:46;96678.63;;;2.94;95.08
84232;BME280;74368;48.022;13.830;2024-02-16T05:19:11;96680.09;;;2.96;94.67
84232;BME280;74368;48.022;13.830;2024-02-16T05:21:37;96695.75;;;2.99;95.04
84232;BME280;74368;48.022;13.830;2024-02-16T05:24:02;96687.06;;;2.97;94.92
84232;BME280;74368;48.022;13.830;2024-02-16T05:26:28;96690.56;;;2.98;94.59
84232;BME280;74368;48.022;13.830;2024-02-16T05:28:53;96688.66;;;2.92;94.32
84232;BME280;74368;48.022;13.830;2024-02-16T05:31:19;96692.13;;;2.92;94.20
84232;BME280;74368;48.022;13.830;2024-02-16T05:33:47;96685.72;;;2.87;93.88
84232;BME280;74368;48.022;13.830;2024-02-16T05:36:12;96677.88;;;2.85;94.25
84232;BME280;74368;48.022;13.830;2024-02-16T05:38:38;96679.09;;;2.83;94.58
84232;BME280;74368;48.022;13.830;2024-02-16T05:41:07;96682.78;;;2.82;94.81
84232;BME280;74368;48.022;13.830;2024-02-16T05:43:33;96682.41;;;2.85;94.40
84232;BME280;74368;48.022;13.830;2024-02-16T05:45:58;96683.63;;;2.82;94.29
84232;BME280;74368;48.022;13.830;2024-02-16T05:48:24;96682.78;;;2.82;94.22
84232;BME280;74368;48.022;13.830;2024-02-16T05:50:52;96686.28;;;2.82;93.88
84232;BME280;74368;48.022;13.830;2024-02-16T05:53:17;96683.97;;;2.79;93.98
84232;BME280;74368;48.022;13.830;2024-02-16T05:55:44;96687.47;;;2.80;94.69
84232;BME280;74368;48.022;13.830;2024-02-16T05:58:09;96690.31;;;2.78;94.76
84232;BME280;74368;48.022;13.830;2024-02-16T06:00:35;96691.69;;;2.74;94.28
84232;BME280;74368;48.022;13.830;2024-02-16T06:03:01;96700.25;;;2.70;94.23
84232;BME280;74368;48.022;13.830;2024-02-16T06:05:26;96704.28;;;2.65;94.14
84232;BME280;74368;48.022;13.830;2024-02-16T06:07:52;96706.78;;;2.67;94.91
84232;BME280;74368;48.022;13.830;2024-02-16T06:10:18;96718.09;;;2.54;94.01
84232;BME280;74368;48.022;13.830;2024-02-16T06:12:43;96711.91;;;2.54;94.51
84232;BME280;74368;48.022;13.830;2024-02-16T06:15:09;96716.59;;;2.52;94.54
84232;BME280;74368;48.022;13.830;2024-02-16T06:17:34;96718.44;;;2.51;94.29
84232;BME280;74368;48.022;13.830;2024-02-16T06:19:59;96730.03;;;2.58;94.69
84232;BME280;74368;48.022;13.830;2024-02-16T06:22:25;96730.03;;;2.58;94.87
84232;BME280;74368;48.022;13.830;2024-02-16T06:24:50;96728.47;;;2.64;94.85
84232;BME280;74368;48.022;13.830;2024-02-16T06:27:16;96731.63;;;2.67;94.86
84232;BME280;74368;48.022;13.830;2024-02-16T06:29:41;96728.56;;;2.71;94.74
84232;BME280;74368;48.022;13.830;2024-02-16T06:32:07;96732.25;;;2.70;94.60
84232;BME280;74368;48.022;13.830;2024-02-16T06:34:33;96732.72;;;2.73;94.43
84232;BME280;74368;48.022;13.830;2024-02-16T06:36:58;96734.81;;;2.78;94.79
84232;BME280;74368;48.022;13.830;2024-02-16T06:39:23;96746.53;;;2.77;94.28
84232;BME280;74368;48.022;13.830;2024-02-16T06:41:49;96735.22;;;2.75;94.14
84232;BME280;74368;48.022;13.830;2024-02-16T06:44:15;96750.19;;;2.76;94.40
84232;BME280;74368;48.022;13.830;2024-02-16T06:46:42;96742.38;;;2.74;93.60
84232;BME280;74368;48.022;13.830;2024-02-16T06:49:07;96745.88;;;2.75;93.52
84232;BME280;74368;48.022;13.830;2024-02-16T06:51:33;96747.22;;;2.71;93.45
84232;BME280;74368;48.022;13.830;2024-02-16T06:53:58;96757.25;;;2.68;93.18
84232;BME280;74368;48.022;13.830;2024-02-16T06:56:23;96759.47;;;2.65;92.83
84232;BME280;74368;48.022;13.830;2024-02-16T06:58:49;96761.22;;;2.58;92.90
84232;BME280;74368;48.022;13.830;2024-02-16T07:01:15;96755.13;;;2.49;92.94
84232;BME280;74368;48.022;13.830;2024-02-16T07:03:43;96770.03;;;2.58;93.38
84232;BME280;74368;48.022;13.830;2024-02-16T07:06:08;96764.63;;;2.66;93.32
84232;BME280;74368;48.022;13.830;2024-02-16T07:08:41;96763.88;;;2.73;93.42
84232;BME280;74368;48.022;13.830;2024-02-16T07:11:06;96760.56;;;2.71;93.02
84232;BME280;74368;48.022;13.830;2024-02-16T07:13:33;96761.41;;;2.71;92.70
84232;BME280;74368;48.022;13.830;2024-02-16T07:15:58;96765.19;;;2.77;92.77
84232;BME280;74368;48.022;13.830;2024-02-16T07:18:24;96763.78;;;2.66;92.07
84232;BME280;74368;48.022;13.830;2024-02-16T07:20:49;96781.09;;;2.70;92.17
84232;BME280;74368;48.022;13.830;2024-02-16T07:23:14;96776.50;;;2.79;92.61
84232;BME280;74368;48.022;13.830;2024-02-16T07:25:41;96787.53;;;2.90;92.98
84232;BME280;74368;48.022;13.830;2024-02-16T07:28:07;96791.53;;;2.94;91.86
84232;BME280;74368;48.022;13.830;2024-02-16T07:30:32;96771.25;;;3.00;93.01
84232;BME280;74368;48.022;13.830;2024-02-16T07:32:58;96774.41;;;3.03;92.45
84232;BME280;74368;48.022;13.830;2024-02-16T07:35:24;96785.44;;;3.15;92.32
84232;BME280;74368;48.022;13.830;2024-02-16T07:37:50;96777.63;;;3.13;91.66
84232;BME280;74368;48.022;13.830;2024-02-16T07:40:19;96798.78;;;3.29;92.05
84232;BME280;74368;48.022;13.830;2024-02-16T07:42:45;96781.28;;;3.27;91.48
84232;BME280;74368;48.022;13.830;2024-02-16T07:45:11;96785.91;;;3.33;91.32
84232;BME280;74368;48.022;13.830;2024-02-16T07:47:45;96781.34;;;3.48;91.19
84232;BME280;74368;48.022;13.830;2024-02-16T07:50:11;96775.38;;;3.46;89.45
84232;BME280;74368;48.022;13.830;2024-02-16T07:52:37;96775.75;;;3.43;88.92
84232;BME280;74368;48.022;13.830;2024-02-16T07:55:03;96786.59;;;3.42;89.03
84232;BME280;74368;48.022;13.830;2024-02-16T07:57:29;96786.25;;;3.30;89.16
84232;BME280;74368;48.022;13.830;2024-02-16T07:59:55;96794.28;;;3.30;90.32
84232;BME280;74368;48.022;13.830;2024-02-16T08:02:21;96800.31;;;3.39;90.14
84232;BME280;74368;48.022;13.830;2024-02-16T08:04:47;96799.53;;;3.38;89.13
84232;BME280;74368;48.022;13.830;2024-02-16T08:07:13;96794.63;;;3.42;90.02
84232;BME280;74368;48.022;13.830;2024-02-16T08:09:38;96802.34;;;3.51;89.49
84232;BME280;74368;48.022;13.830;2024-02-16T08:12:04;96800.97;;;3.55;90.00
84232;BME280;74368;48.022;13.830;2024-02-16T08:14:34;96799.78;;;3.58;89.80
84232;BME280;74368;48.022;13.830;2024-02-16T08:17:00;96804.19;;;3.51;88.44
84232;BME280;74368;48.022;13.830;2024-02-16T08:19:32;96809.16;;;3.54;88.82
84232;BME280;74368;48.022;13.830;2024-02-16T08:22:02;96794.44;;;3.43;89.86
84232;BME280;74368;48.022;13.830;2024-02-16T08:24:28;96807.69;;;3.51;89.15
84232;BME280;74368;48.022;13.830;2024-02-16T08:26:53;96819.28;;;3.58;89.92
84232;BME280;74368;48.022;13.830;2024-02-16T08:29:19;96807.50;;;3.67;89.92
84232;BME280;74368;48.022;13.830;2024-02-16T08:31:47;96813.53;;;3.76;88.16
84232;BME280;74368;48.022;13.830;2024-02-16T08:34:12;96816.75;;;3.86;88.83
84232;BME280;74368;48.022;13.830;2024-02-16T08:36:38;96814.34;;;3.91;87.81
84232;BME280;74368;48.022;13.830;2024-02-16T08:39:05;96809.56;;;3.86;87.25
84232;BME280;74368;48.022;13.830;2024-02-16T08:41:31;96808.63;;;3.94;88.77
84232;BME280;74368;48.022;13.830;2024-02-16T08:43:57;96811.16;;;4.02;89.10
84232;BME280;74368;48.022;13.830;2024-02-16T08:46:22;96801.31;;;4.24;89.84
84232;BME280;74368;48.022;13.830;2024-02-16T08:48:48;96802.19;;;4.31;88.22
84232;BME280;74368;48.022;13.830;2024-02-16T08:51:14;96811.44;;;4.28;88.12
84232;BME280;74368;48.022;13.830;2024-02-16T08:53:39;96807.41;;;4.39;88.47
84232;BME280;74368;48.022;13.830;2024-02-16T08:56:09;96808.47;;;4.38;87.73
84232;BME280;74368;48.022;13.830;2024-02-16T08:58:35;96808.91;;;4.20;88.34
84232;BME280;74368;48.022;13.830;2024-02-16T09:01:01;96812.25;;;4.29;88.29
84232;BME280;74368;48.022;13.830;2024-02-16T09:03:27;96808.31;;;4.25;85.83
84232;BME280;74368;48.022;13.830;2024-02-16T09:05:53;96815.44;;;4.39;86.66
84232;BME280;74368;48.022;13.830;2024-02-16T09:08:18;96818.91;;;4.33;88.46
84232;BME280;74368;48.022;13.830;2024-02-16T09:10:43;96812.13;;;4.37;87.88
84232;BME280;74368;48.022;13.830;2024-02-16T09:13:08;96820.03;;;4.45;86.74
84232;BME280;74368;48.022;13.830;2024-02-16T09:15:34;96815.69;;;4.44;88.34
84232;BME280;74368;48.022;13.830;2024-02-16T09:17:59;96822.81;;;4.58;88.93
84232;BME280;74368;48.022;13.830;2024-02-16T09:20:25;96817.53;;;4.64;88.25
84232;BME280;74368;48.022;13.830;2024-02-16T09:22:50;96825.03;;;4.76;88.55
84232;BME280;74368;48.022;13.830;2024-02-16T09:25:19;96826.25;;;4.73;87.23
84232;BME280;74368;48.022;13.830;2024-02-16T09:27:44;96832.09;;;4.83;87.98
84232;BME280;74368;48.022;13.830;2024-02-16T09:30:11;96827.38;;;4.85;88.18
84232;BME280;74368;48.022;13.830;2024-02-16T09:32:39;96835.91;;;4.95;89.01
84232;BME280;74368;48.022;13.830;2024-02-16T09:35:05;96827.66;;;4.97;88.19
84232;BME280;74368;48.022;13.830;2024-02-16T09:37:31;96827.25;;;4.93;87.45
84232;BME280;74368;48.022;13.830;2024-02-16T09:39:56;96831.81;;;4.99;87.11
84232;BME280;74368;48.022;13.830;2024-02-16T09:42:23;96832.97;;;4.90;87.36
84232;BME280;74368;48.022;13.830;2024-02-16T09:44:50;96831.97;;;4.91;86.77
84232;BME280;74368;48.022;13.830;2024-02-16T09:47:16;96836.38;;;4.78;87.88
84232;BME280;74368;48.022;13.830;2024-02-16T09:49:44;96834.81;;;4.62;88.17
84232;BME280;74368;48.022;13.830;2024-02-16T09:52:10;96841.47;;;4.73;88.36
84232;BME280;74368;48.022;13.830;2024-02-16T09:54:37;96843.56;;;4.77;88.24
84232;BME280;74368;48.022;13.830;2024-02-16T09:57:04;96842.09;;;4.96;87.10
84232;BME280;74368;48.022;13.830;2024-02-16T09:59:29;96852.50;;;5.12;88.13
84232;BME280;74368;48.022;13.830;2024-02-16T10:02:00;96834.38;;;5.14;86.27
84232;BME280;74368;48.022;13.830;2024-02-16T10:04:25;96847.03;;;5.26;85.62
84232;BME280;74368;48.022;13.830;2024-02-16T10:06:50;96855.56;;;5.37;84.59
84232;BME280;74368;48.022;13.830;2024-02-16T10:09:27;96854.34;;;5.39;85.86
84232;BME280;74368;48.022;13.830;2024-02-16T10:11:57;96855.66;;;5.50;86.34
84232;BME280;74368;48.022;13.830;2024-02-16T10:14:22;96851.50;;;5.47;85.86
84232;BME280;74368;48.022;13.830;2024-02-16T10:17:01;96857.66;;;5.48;86.16
84232;BME280;74368;48.022;13.830;2024-02-16T10:19:28;96852.66;;;5.38;85.14
84232;BME280;74368;48.022;13.830;2024-02-16T10:21:53;96857.47;;;5.43;87.22
84232;BME280;74368;48.022;13.830;2024-02-16T10:24:21;96863.81;;;5.42;87.58
84232;BME280;74368;48.022;13.830;2024-02-16T10:26:47;96851.19;;;5.35;87.14
84232;BME280;74368;48.022;13.830;2024-02-16T10:29:17;96858.88;;;5.45;85.63
84232;BME280;74368;48.022;13.830;2024-02-16T10:31:44;96858.47;;;5.42;85.22
84232;BME280;74368;48.022;13.830;2024-02-16T10:34:10;96864.34;;;5.58;85.04
84232;BME280;74368;48.022;13.830;2024-02-16T10:36:37;96866.41;;;5.63;84.69
84232;BME280;74368;48.022;13.830;2024-02-16T10:39:03;96867.47;;;5.62;84.68
84232;BME280;74368;48.022;13.830;2024-02-16T10:41:35;96849.22;;;5.44;84.45
84232;BME280;74368;48.022;13.830;2024-02-16T10:44:02;96847.38;;;5.45;83.71
84232;BME280;74368;48.022;13.830;2024-02-16T10:46:27;96850.84;;;5.45;85.38
84232;BME280;74368;48.022;13.830;2024-02-16T10:48:53;96841.72;;;5.33;85.50
84232;BME280;74368;48.022;13.830;2024-02-16T10:51:26;96848.63;;;5.49;83.00
84232;BME280;74368;48.022;13.830;2024-02-16T10:53:54;96853.06;;;5.69;83.62
84232;BME280;74368;48.022;13.830;2024-02-16T10:56:41;96854.09;;;5.75;83.81
84232;BME280;74368;48.022;13.830;2024-02-16T10:59:10;96848.69;;;5.96;82.37
84232;BME280;74368;48.022;13.830;2024-02-16T11:01:43;96860.66;;;6.00;82.66
84232;BME280;74368;48.022;13.830;2024-02-16T11:04:12;96858.47;;;6.23;83.58
84232;BME280;74368;48.022;13.830;2024-02-16T11:06:48;96847.78;;;6.30;82.07
84232;BME280;74368;48.022;13.830;2024-02-16T11:11:52;96846.94;;;6.23;82.41
84232;BME280;74368;48.022;13.830;2024-02-16T11:14:18;96846.53;;;6.32;80.90
84232;BME280;74368;48.022;13.830;2024-02-16T11:16:44;96849.00;;;6.34;82.40
84232;BME280;74368;48.022;13.830;2024-02-16T11:19:10;96852.09;;;6.31;84.07
84232;BME280;74368;48.022;13.830;2024-02-16T11:21:35;96852.13;;;6.37;83.81
84232;BME280;74368;48.022;13.830;2024-02-16T11:24:07;96852.16;;;6.63;82.82
84232;BME280;74368;48.022;13.830;2024-02-16T11:26:42;96846.81;;;6.57;81.65
84232;BME280;74368;48.022;13.830;2024-02-16T11:29:08;96845.16;;;6.76;82.47
84232;BME280;74368;48.022;13.830;2024-02-16T11:31:35;96838.75;;;6.77;80.19
84232;BME280;74368;48.022;13.830;2024-02-16T11:34:00;96832.97;;;6.67;80.44
84232;BME280;74368;48.022;13.830;2024-02-16T11:36:26;96837.91;;;6.70;81.65
84232;BME280;74368;48.022;13.830;2024-02-16T11:38:52;96837.50;;;6.73;80.24
84232;BME280;74368;48.022;13.830;2024-02-16T11:41:17;96839.78;;;6.76;81.21
84232;BME280;74368;48.022;13.830;2024-02-16T11:43:43;96843.53;;;6.81;80.62
84232;BME280;74368;48.022;13.830;2024-02-16T11:46:12;96835.88;;;6.85;79.44
84232;BME280;74368;48.022;13.830;2024-02-16T11:48:38;96837.50;;;6.99;80.60
84232;BME280;74368;48.022;13.830;2024-02-16T11:51:04;96830.69;;;6.96;81.19
84232;BME280;74368;48.022;13.830;2024-02-16T11:53:30;96832.56;;;7.22;80.70
84232;BME280;74368;48.022;13.830;2024-02-16T11:55:56;96825.53;;;7.14;80.97
84232;BME280;74368;48.022;13.830;2024-02-16T11:58:22;96825.75;;;7.06;81.23
84232;BME280;74368;48.022;13.830;2024-02-16T12:00:48;96829.25;;;7.26;80.67
84232;BME280;74368;48.022;13.830;2024-02-16T12:03:21;96822.22;;;7.19;81.47
84232;BME280;74368;48.022;13.830;2024-02-16T12:06:05;96823.66;;;7.08;81.88
84232;BME280;74368;48.022;13.830;2024-02-16T12:08:34;96819.75;;;7.11;81.88
84232;BME280;74368;48.022;13.830;2024-02-16T12:11:00;96818.72;;;7.12;81.72
84232;BME280;74368;48.022;13.830;2024-02-16T12:13:27;96808.59;;;7.14;81.97
84232;BME280;74368;48.022;13.830;2024-02-16T12:15:52;96816.63;;;7.14;82.09
84232;BME280;74368;48.022;13.830;2024-02-16T12:18:22;96816.84;;;7.19;81.45
84232;BME280;74368;48.022;13.830;2024-02-16T12:23:22;96821.94;;;7.53;80.84
84232;BME280;74368;48.022;13.830;2024-02-16T12:25:47;96822.66;;;7.86;80.71
84232;BME280;74368;48.022;13.830;2024-02-16T12:28:13;96827.56;;;8.47;78.74
84232;BME280;74368;48.022;13.830;2024-02-16T12:30:38;96814.47;;;8.88;76.33
84232;BME280;74368;48.022;13.830;2024-02-16T12:33:05;96822.41;;;9.26;75.11
84232;BME280;74368;48.022;13.830;2024-02-16T12:35:30;96817.03;;;9.26;74.29
84232;BME280;74368;48.022;13.830;2024-02-16T12:37:56;96819.41;;;9.59;71.58
84232;BME280;74368;48.022;13.830;2024-02-16T12:40:21;96816.25;;;9.80;71.77
84232;BME280;74368;48.022;13.830;2024-02-16T12:42:47;96801.25;;;9.48;72.15
84232;BME280;74368;48.022;13.830;2024-02-16T12:45:13;96811.31;;;9.59;71.84
84232;BME280;74368;48.022;13.830;2024-02-16T12:47:38;96804.03;;;9.59;72.47
84232;BME280;74368;48.022;13.830;2024-02-16T12:50:04;96803.88;;;9.54;72.34
84232;BME280;74368;48.022;13.830;2024-02-16T12:52:29;96798.22;;;10.10;71.13
84232;BME280;74368;48.022;13.830;2024-02-16T12:54:56;96804.25;;;10.60;67.00
84232;BME280;74368;48.022;13.830;2024-02-16T12:57:23;96798.22;;;11.11;65.73
84232;BME280;74368;48.022;13.830;2024-02-16T12:59:49;96798.47;;;11.33;65.23